Aeroporto :
LOGIN :

Iscrizione | Disclaimer

   EN    FR    IT 

 










Sommario :    VFR   VFR Marginale   IFR   IFR Intensivo   IFR Molto Intensivo
Visibilità : 
Base nubi : 
>= 8 km
>= 3000ft
5 / 8 km
1000 / 3000 ft
1500m / 5 km
500 / 1000 ft
800 / 1500m
200 / 500 ft
< 800m
< 200 ft
Simboli :   Temporali  Nebbia  Neve Forte  Precipitazioni Forti  Vento > 20 kt
SIGMETs :   Varie  Temporali  Ghiacco  Turbolenza  Onda orograficha  Ceneri Vulcaniche






- Altitudine del aeroporto : 663 ft
- Codice IATA : BZK


UUBP - Bryansk

ULTIMO METAR :
  • 301400Z 33001MPS 3300 -SHSN BR BKN006 OVC017CB M01/M01 Q1026 R34/590250 NOSIG RMK QFE752/1002

METARs OBSOLETI :
  • 301330Z 30002MPS 1400 R34/1400N SHSN BR BKN002 OVC015CB M01/M01 Q1026 R34/590250 NOSIG RMK QBB080 QFE752/1002
  • 301300Z 15001MPS 1600 R34/1600N SHSN BR BKN002 OVC013CB 00/M00 Q1026 R34/590250 NOSIG RMK QBB080 QFE751/1002
  • 301230Z 16001MPS 1300 1200SE R34/1300U SHSN BR BKN003 OVC013CB 00/M00 Q1026 R34/590250 NOSIG RMK QBB090 QFE752/1002
  • 301200Z 17001MPS 1600 R16/1500N SHSN BR BKN003 OVC013CB 00/M00 Q1026 R16/590250 NOSIG RMK QBB090 QFE751/1001
  • 301130Z 18001MPS 1600 R16/1600N SHSN BR BKN003 OVC015CB 00/M00 Q1026 R16/590250 NOSIG RMK QBB090 QFE751/1001

TAF TAF UUBP
Valido dal 30 a 12 ore il 30 a 21 ore UTC


301052Z 3012/3021 VRB01MPS 1500 SHSN BR BKN003 OVC011CB



MetMap, La meteo Aeronautica in un colpo d'occhio ! - Copyright ORBIFLY Dicembre 2007 - Disclaimer

ORBIFLY MET'MAP TEAM :

Programmazione e sviluppo : Alexandra Zaïnal
Concezione : Baudouin d'Aumeries
Aiuto per la programmazione : Marc-Olivier Méhu
Supporto tecnico e logistico : Manuel Goepfert
Aiuto per la traduzione : Arnaldo La Scala

Contatto : metmap@orbifly.com




FONTI E CREDITI :

   NOAA